Time;durP1;ratioP1;P1;durP2;ratioP2;P2;SDS_P1;SDS_P2;PMS_P1;PMS_P2;Temp;Humidity;BMP_temperature;BMP_pressure;BME280_temperature;BME280_humidity;BME280_pressure;Samples;Min_cycle;Max_cycle;Signal;HPM_P1;HPM_P2
2024/04/18 00:01:16;;;;;;;2.92;1.13;;;7.00;99.90;;;;;;5452661;26;20017;-61
2024/04/18 00:03:43;;;;;;;4.13;1.23;;;7.00;99.90;;;;;;5453270;26;20048;-62
2024/04/18 00:06:11;;;;;;;3.17;1.20;;;7.00;99.90;;;;;;5453123;26;20015;-61
2024/04/18 00:08:38;;;;;;;4.07;1.40;;;6.90;99.90;;;;;;5451196;26;20007;-62
2024/04/18 00:11:23;;;;;;;5.70;1.10;;;6.90;99.90;;;;;;5453192;26;19998;-61
2024/04/18 00:13:50;;;;;;;5.55;1.30;;;7.00;99.90;;;;;;5453171;26;20006;-61
2024/04/18 00:16:35;;;;;;;5.18;1.52;;;7.00;99.90;;;;;;5452880;26;20007;-62
2024/04/18 00:19:14;;;;;;;5.13;1.30;;;7.00;99.90;;;;;;5453145;26;20003;-62
2024/04/18 00:21:56;;;;;;;6.45;1.40;;;7.00;99.90;;;;;;5453165;26;20018;-62
2024/04/18 00:24:26;;;;;;;2.72;1.20;;;7.00;99.90;;;;;;5452801;26;20017;-62
2024/04/18 00:26:53;;;;;;;4.88;1.50;;;6.90;99.90;;;;;;5451282;26;20015;-61
2024/04/18 00:29:20;;;;;;;4.45;1.27;;;6.90;99.90;;;;;;5453055;26;20003;-62
2024/04/18 00:31:46;;;;;;;8.48;1.70;;;6.90;99.90;;;;;;5454672;26;20080;-62
2024/04/18 00:34:32;;;;;;;5.28;1.30;;;6.90;99.90;;;;;;5456528;26;20375;-61
2024/04/18 00:36:59;;;;;;;3.25;1.27;;;6.90;99.90;;;;;;5456278;26;20013;-61
2024/04/18 00:39:26;;;;;;;4.15;1.30;;;6.90;99.90;;;;;;5456154;26;20014;-61
2024/04/18 00:41:59;;;;;;;4.47;1.45;;;6.80;99.90;;;;;;5456015;26;20022;-61
2024/04/18 00:44:28;;;;;;;3.72;1.05;;;6.80;99.90;;;;;;5456204;26;20122;-63
2024/04/18 00:47:11;;;;;;;4.93;1.02;;;6.80;99.90;;;;;;5454700;26;20013;-62
2024/04/18 00:49:38;;;;;;;5.07;1.40;;;6.70;99.90;;;;;;5458401;26;20004;-63
2024/04/18 00:52:05;;;;;;;7.07;1.25;;;6.70;99.90;;;;;;5454335;26;20014;-62
2024/04/18 00:54:52;;;;;;;3.47;1.20;;;6.70;99.90;;;;;;5456028;26;20006;-62
2024/04/18 00:57:32;;;;;;;6.07;1.23;;;6.60;99.90;;;;;;5456198;26;20013;-61
2024/04/18 00:59:59;;;;;;;4.55;1.10;;;6.50;99.90;;;;;;5456150;26;20523;-61
2024/04/18 01:02:26;;;;;;;1.60;0.80;;;6.50;99.90;;;;;;5455935;26;20014;-61
2024/04/18 01:05:11;;;;;;;6.20;1.30;;;6.50;99.90;;;;;;5456549;26;20025;-62
2024/04/18 01:07:41;;;;;;;5.72;1.20;;;6.50;99.90;;;;;;5454123;26;20481;-61
2024/04/18 01:10:20;;;;;;;6.38;1.30;;;6.50;99.90;;;;;;5455894;26;20104;-62
2024/04/18 01:12:47;;;;;;;3.13;1.00;;;6.60;99.90;;;;;;5456101;26;20031;-61
2024/04/18 01:15:34;;;;;;;4.63;1.10;;;6.50;99.90;;;;;;5455530;26;20031;-61
2024/04/18 01:18:01;;;;;;;4.35;1.42;;;6.50;99.90;;;;;;5455593;26;20071;-62
2024/04/18 01:20:28;;;;;;;5.45;1.10;;;6.50;99.90;;;;;;5455495;26;20463;-61
2024/04/18 01:22:55;;;;;;;5.25;1.10;;;6.50;99.90;;;;;;5455877;26;20444;-61
2024/04/18 01:25:40;;;;;;;5.25;0.98;;;6.60;99.90;;;;;;5456868;26;20007;-62
2024/04/18 01:28:08;;;;;;;4.90;1.00;;;6.50;99.90;;;;;;5458610;26;20002;-62
2024/04/18 01:30:57;;;;;;;3.65;1.02;;;6.60;99.90;;;;;;5455478;26;20007;-62
2024/04/18 01:33:24;;;;;;;7.68;1.35;;;6.60;99.90;;;;;;5455677;26;20010;-62
2024/04/18 01:35:52;;;;;;;4.88;1.20;;;6.60;99.90;;;;;;5456820;26;20075;-62
2024/04/18 01:38:23;;;;;;;5.65;1.23;;;6.60;99.90;;;;;;5457398;26;20010;-62
2024/04/18 01:40:51;;;;;;;7.20;1.20;;;6.60;99.90;;;;;;5457282;26;20002;-62
2024/04/18 01:43:45;;;;;;;7.43;1.27;;;6.60;99.90;;;;;;5456929;26;20056;-61
2024/04/18 01:46:31;;;;;;;7.38;1.17;;;6.50;99.90;;;;;;5457353;26;20014;-59
2024/04/18 01:49:02;;;;;;;6.53;1.10;;;6.50;99.90;;;;;;5458404;26;20018;-60
2024/04/18 01:51:51;;;;;;;7.22;1.13;;;6.50;99.90;;;;;;5460075;26;20044;-60
2024/04/18 01:54:35;;;;;;;4.05;0.95;;;6.40;99.90;;;;;;5456444;26;20030;-60
2024/04/18 01:57:02;;;;;;;4.65;1.42;;;6.30;99.90;;;;;;5458002;26;19999;-59
2024/04/18 01:59:48;;;;;;;9.52;1.10;;;6.30;99.90;;;;;;5457468;26;20019;-60
2024/04/18 02:02:21;;;;;;;5.20;1.20;;;6.20;99.90;;;;;;5457774;26;20056;-60
2024/04/18 02:05:06;;;;;;;5.75;1.20;;;6.20;99.90;;;;;;5457186;26;20007;-59
2024/04/18 02:07:42;;;;;;;;;;;6.20;99.90;;;;;;5455818;26;20056;-59
2024/04/18 02:10:09;;;;;;;6.55;1.23;;;6.10;99.90;;;;;;5455433;26;19931;-59
2024/04/18 02:13:00;;;;;;;9.02;1.45;;;6.10;99.90;;;;;;5453372;26;20035;-60
2024/04/18 02:15:43;;;;;;;4.97;1.15;;;6.00;99.90;;;;;;5456226;26;20002;-60
2024/04/18 02:18:14;;;;;;;4.82;1.17;;;5.90;99.90;;;;;;5455556;26;20060;-60
2024/04/18 02:20:42;;;;;;;6.90;1.63;;;5.90;99.90;;;;;;5457281;26;20011;-60
2024/04/18 02:23:28;;;;;;;7.38;1.33;;;5.90;99.90;;;;;;5457977;26;20006;-63
2024/04/18 02:25:55;;;;;;;4.90;1.17;;;5.90;99.90;;;;;;5425265;26;20027;-61
2024/04/18 02:28:27;;;;;;;4.70;1.20;;;5.90;99.90;;;;;;5455871;26;20003;-60
2024/04/18 02:31:15;;;;;;;4.38;1.13;;;5.90;99.90;;;;;;5454557;26;20007;-61
2024/04/18 02:33:50;;;;;;;4.88;1.30;;;5.80;99.90;;;;;;5453884;26;20039;-61
2024/04/18 02:36:24;;;;;;;5.28;1.20;;;5.80;99.90;;;;;;5455056;26;20007;-60
2024/04/18 02:39:11;;;;;;;5.53;1.10;;;5.80;99.90;;;;;;5446640;26;20002;-60
2024/04/18 02:41:38;;;;;;;6.45;1.20;;;5.70;99.90;;;;;;5454474;26;20003;-60
2024/04/18 02:44:24;;;;;;;3.38;0.80;;;5.80;99.90;;;;;;5455486;26;20047;-60
2024/04/18 02:46:52;;;;;;;6.03;1.10;;;5.70;99.90;;;;;;5454693;26;20011;-60
2024/04/18 02:49:28;;;;;;;4.07;1.15;;;5.70;99.90;;;;;;5453177;26;20015;-61
2024/04/18 02:51:55;;;;;;;6.40;1.25;;;5.70;99.90;;;;;;5455058;26;19998;-61
2024/04/18 02:54:44;;;;;;;5.13;1.00;;;5.60;99.90;;;;;;5454911;26;20375;-60
2024/04/18 02:57:12;;;;;;;5.15;1.10;;;5.60;99.90;;;;;;5453201;26;20006;-60
2024/04/18 02:59:39;;;;;;;6.55;1.08;;;5.60;99.90;;;;;;5454619;26;20017;-60
2024/04/18 03:02:21;;;;;;;5.25;1.25;;;5.60;99.90;;;;;;5453210;26;20079;-60
2024/04/18 03:05:09;;;;;;;5.18;0.93;;;5.60;99.90;;;;;;5451958;26;20463;-60
2024/04/18 03:07:36;;;;;;;7.20;0.90;;;5.60;99.90;;;;;;5454642;26;20022;-60
2024/04/18 03:10:06;;;;;;;7.32;1.40;;;5.50;99.90;;;;;;5455318;26;20018;-61
2024/04/18 03:12:56;;;;;;;5.88;1.17;;;5.50;99.90;;;;;;5454593;26;20473;-61
2024/04/18 03:15:41;;;;;;;3.55;0.90;;;5.50;99.90;;;;;;5456032;26;20344;-60
2024/04/18 03:18:11;;;;;;;9.82;1.08;;;5.50;99.90;;;;;;5454259;26;20002;-60
2024/04/18 03:20:38;;;;;;;2.92;1.02;;;5.50;99.90;;;;;;5453772;26;20078;-60
2024/04/18 03:23:05;;;;;;;5.80;0.93;;;5.40;99.90;;;;;;5453802;26;20484;-60
2024/04/18 03:25:32;;;;;;;6.05;1.08;;;5.40;99.90;;;;;;5453744;26;20006;-60
2024/04/18 03:28:02;;;;;;;5.05;1.38;;;5.40;99.90;;;;;;5452135;26;20409;-59
2024/04/18 03:30:28;;;;;;;4.72;0.90;;;5.40;99.90;;;;;;5453973;26;19995;-60
2024/04/18 03:33:13;;;;;;;7.32;1.33;;;5.40;99.90;;;;;;5453914;26;20447;-60
2024/04/18 03:35:40;;;;;;;7.30;1.00;;;5.30;99.90;;;;;;5453671;26;20010;-60
2024/04/18 03:38:13;;;;;;;5.05;0.90;;;5.30;99.90;;;;;;5423562;26;20018;-60
2024/04/18 03:40:40;;;;;;;6.78;1.08;;;5.30;99.90;;;;;;5453523;26;20515;-60
2024/04/18 03:43:07;;;;;;;5.35;1.10;;;5.30;99.90;;;;;;5453699;26;20015;-60
2024/04/18 03:45:33;;;;;;;3.60;1.00;;;5.30;99.90;;;;;;5453542;26;20034;-60
2024/04/18 03:48:19;;;;;;;4.78;1.20;;;5.20;99.90;;;;;;5453898;26;20090;-60
2024/04/18 03:50:46;;;;;;;7.28;1.30;;;5.20;99.90;;;;;;5451858;26;20458;-60
2024/04/18 03:53:19;;;;;;;6.18;1.23;;;5.20;99.90;;;;;;5471393;26;20078;-60
2024/04/18 03:55:46;;;;;;;6.55;1.10;;;5.20;99.90;;;;;;5464766;26;20336;-60
2024/04/18 03:58:13;;;;;;;5.35;1.40;;;5.10;99.90;;;;;;5451487;26;20083;-59
2024/04/18 04:00:45;;;;;;;3.40;1.00;;;5.10;99.90;;;;;;5453181;26;20021;-60
2024/04/18 04:03:12;;;;;;;7.20;1.10;;;5.00;99.90;;;;;;5453300;26;20078;-60
2024/04/18 04:05:40;;;;;;;3.92;1.05;;;5.00;99.90;;;;;;5453406;26;20014;-60
2024/04/18 04:08:07;;;;;;;5.72;1.40;;;5.00;99.90;;;;;;5456690;26;20003;-60
2024/04/18 04:10:40;;;;;;;3.85;1.27;;;5.00;99.90;;;;;;5457017;26;20014;-60
2024/04/18 04:13:06;;;;;;;5.32;1.10;;;4.90;99.90;;;;;;5456513;26;19999;-60
2024/04/18 04:15:40;;;;;;;4.82;1.10;;;4.90;99.90;;;;;;5457134;26;20017;-60
2024/04/18 04:18:06;;;;;;;3.00;1.10;;;4.90;99.90;;;;;;5456433;26;20018;-60
2024/04/18 04:20:39;;;;;;;5.95;1.20;;;4.90;99.90;;;;;;5454879;26;20007;-60
2024/04/18 04:23:06;;;;;;;5.70;1.13;;;4.90;99.90;;;;;;5456475;26;20018;-60
2024/04/18 04:25:53;;;;;;;8.45;1.13;;;4.90;99.90;;;;;;5456143;26;20010;-60
2024/04/18 04:28:20;;;;;;;6.22;1.52;;;4.90;99.90;;;;;;5456525;26;20509;-60
2024/04/18 04:30:47;;;;;;;4.10;1.10;;;4.80;99.90;;;;;;5456552;26;20015;-60
2024/04/18 04:33:14;;;;;;;4.05;1.10;;;4.80;99.90;;;;;;5454496;26;20003;-61
2024/04/18 04:35:41;;;;;;;6.88;1.30;;;4.80;99.90;;;;;;5456609;26;20002;-60
2024/04/18 04:38:08;;;;;;;4.07;1.00;;;4.80;99.90;;;;;;5456263;26;20006;-60
2024/04/18 04:40:34;;;;;;;3.25;1.08;;;4.70;99.90;;;;;;5456171;26;20011;-60
2024/04/18 04:43:01;;;;;;;3.72;0.95;;;4.70;99.90;;;;;;5456329;26;20451;-60
2024/04/18 04:45:28;;;;;;;5.68;1.17;;;4.70;99.90;;;;;;5456152;26;20003;-60
2024/04/18 04:48:04;;;;;;;5.20;1.13;;;4.70;99.90;;;;;;5456245;26;20007;-60
2024/04/18 04:50:31;;;;;;;5.22;1.23;;;4.70;99.90;;;;;;5456235;26;19999;-60
2024/04/18 04:53:10;;;;;;;5.63;1.02;;;4.70;99.90;;;;;;5454674;26;20011;-60
2024/04/18 04:55:56;;;;;;;3.65;1.25;;;4.70;99.90;;;;;;5456177;26;20014;-60
2024/04/18 04:58:23;;;;;;;7.47;1.15;;;4.60;99.90;;;;;;5456158;26;20424;-59
2024/04/18 05:00:50;;;;;;;6.30;1.40;;;4.60;99.90;;;;;;5454109;26;20003;-60
2024/04/18 05:03:35;;;;;;;5.25;1.27;;;4.60;99.90;;;;;;5456070;26;20017;-59
2024/04/18 05:06:21;;;;;;;3.90;1.30;;;4.60;99.90;;;;;;5456132;26;20083;-59
2024/04/18 05:09:06;;;;;;;4.13;1.20;;;4.60;99.90;;;;;;5456197;26;20459;-59
2024/04/18 05:11:33;;;;;;;4.40;1.33;;;4.70;99.90;;;;;;5424178;26;19995;-59
2024/04/18 05:14:00;;;;;;;7.82;1.50;;;4.70;99.90;;;;;;5455695;26;20003;-59
2024/04/18 05:16:45;;;;;;;3.58;1.13;;;4.70;99.90;;;;;;5456295;26;20076;-59
2024/04/18 05:19:12;;;;;;;5.55;1.30;;;4.70;99.90;;;;;;5454692;26;19999;-59
2024/04/18 05:21:39;;;;;;;5.22;1.30;;;4.70;99.90;;;;;;5455636;26;20007;-59
2024/04/18 05:24:25;;;;;;;7.90;1.42;;;4.80;99.90;;;;;;5456305;26;20017;-59
2024/04/18 05:26:52;;;;;;;7.15;2.15;;;4.80;99.90;;;;;;5455646;26;20015;-59
2024/04/18 05:32:04;;;;;;;6.53;1.10;;;4.90;99.90;;;;;;5455438;26;19999;-61
2024/04/18 05:34:32;;;;;;;3.55;1.00;;;4.80;99.90;;;;;;5455593;26;20070;-59
2024/04/18 05:36:58;;;;;;;4.47;1.80;;;4.80;99.90;;;;;;5455509;26;20344;-59
2024/04/18 05:39:26;;;;;;;6.15;1.70;;;4.80;99.90;;;;;;5455736;26;20003;-58
2024/04/18 05:41:54;;;;;;;7.18;1.50;;;4.80;99.90;;;;;;5455649;26;20002;-59
2024/04/18 05:44:30;;;;;;;4.43;1.17;;;4.80;99.90;;;;;;5455063;26;20344;-59
2024/04/18 05:46:57;;;;;;;4.75;1.50;;;4.80;99.90;;;;;;5455123;26;20003;-58
2024/04/18 05:49:24;;;;;;;4.90;1.48;;;4.80;99.90;;;;;;5455391;26;20451;-59
2024/04/18 05:51:51;;;;;;;6.50;1.70;;;4.80;99.90;;;;;;5455330;26;20509;-58
2024/04/18 05:54:27;;;;;;;4.90;1.75;;;4.80;99.90;;;;;;5453317;26;20014;-59
2024/04/18 05:57:03;;;;;;;;;;;4.80;99.90;;;;;;5455602;26;20017;-59
2024/04/18 05:59:48;;;;;;;5.22;1.40;;;4.80;99.90;;;;;;5455995;26;19931;-59
2024/04/18 06:02:15;;;;;;;8.77;2.47;;;4.80;99.90;;;;;;5454946;26;19998;-58
2024/04/18 06:04:42;;;;;;;4.20;1.60;;;4.80;99.90;;;;;;5454919;26;20079;-58
2024/04/18 06:07:29;;;;;;;8.05;1.70;;;4.80;99.90;;;;;;5454670;26;20014;-58
2024/04/18 06:09:56;;;;;;;3.97;1.70;;;4.90;99.90;;;;;;5455016;26;20011;-58
2024/04/18 06:12:23;;;;;;;5.30;1.90;;;4.90;99.90;;;;;;5455077;26;20465;-59
2024/04/18 06:14:50;;;;;;;10.68;1.85;;;4.90;99.90;;;;;;5454713;26;20014;-58
2024/04/18 06:17:16;;;;;;;4.97;1.85;;;5.00;99.90;;;;;;5454525;26;20007;-58
2024/04/18 06:19:50;;;;;;;6.38;2.33;;;5.00;99.90;;;;;;5455006;26;20014;-58
2024/04/18 06:22:28;;;;;;;8.43;2.15;;;5.00;99.90;;;;;;5454755;26;20021;-58
2024/04/18 06:25:16;;;;;;;4.75;1.90;;;5.10;99.90;;;;;;5454836;26;20013;-58
2024/04/18 06:27:43;;;;;;;7.25;1.80;;;5.10;99.90;;;;;;5454831;26;20360;-59
2024/04/18 06:30:10;;;;;;;10.30;2.25;;;5.20;99.90;;;;;;5454013;26;20002;-58
2024/04/18 06:32:37;;;;;;;8.30;2.08;;;5.20;99.90;;;;;;5454540;26;20285;-59
2024/04/18 06:35:04;;;;;;;7.10;2.05;;;5.20;99.90;;;;;;5453055;26;20003;-58
2024/04/18 06:37:32;;;;;;;9.55;2.13;;;5.20;99.90;;;;;;5454300;26;20508;-59
2024/04/18 06:40:00;;;;;;;8.02;2.58;;;5.30;99.90;;;;;;5454451;26;20006;-59
2024/04/18 06:42:27;;;;;;;9.23;2.47;;;5.40;99.90;;;;;;5454666;26;20478;-59
2024/04/18 06:44:54;;;;;;;6.78;1.80;;;5.40;99.90;;;;;;5454557;26;20003;-59
2024/04/18 06:47:21;;;;;;;7.38;2.10;;;5.40;99.90;;;;;;5454366;26;19999;-59
2024/04/18 06:50:06;;;;;;;8.07;2.10;;;5.40;99.90;;;;;;5454019;26;20010;-59
2024/04/18 06:52:33;;;;;;;6.80;2.10;;;5.50;99.90;;;;;;5454047;26;20577;-59
2024/04/18 06:55:00;;;;;;;10.38;2.38;;;5.60;99.90;;;;;;5454272;26;20043;-59
2024/04/18 06:57:42;;;;;;;6.28;2.20;;;5.70;99.90;;;;;;5454125;26;20018;-60
2024/04/18 07:00:10;;;;;;;7.97;2.03;;;5.70;99.90;;;;;;5454175;26;20003;-59
2024/04/18 07:02:37;;;;;;;6.65;2.10;;;5.80;99.90;;;;;;5454184;26;20017;-58
2024/04/18 07:05:22;;;;;;;11.65;2.42;;;5.80;99.90;;;;;;5454403;26;20018;-58
2024/04/18 07:07:49;;;;;;;5.65;2.20;;;5.90;99.90;;;;;;5454174;26;20027;-59
2024/04/18 07:10:31;;;;;;;10.38;2.10;;;5.90;99.90;;;;;;5454163;26;20014;-58
2024/04/18 07:13:19;;;;;;;6.68;2.55;;;6.00;99.90;;;;;;5454312;26;19999;-59
2024/04/18 07:15:55;;;;;;;6.90;2.10;;;6.10;99.90;;;;;;5453884;26;20003;-59
2024/04/18 07:18:57;;;;;;;7.95;2.40;;;6.20;99.90;;;;;;5445767;26;20011;-56
2024/04/18 07:21:24;;;;;;;9.32;2.25;;;6.20;99.90;;;;;;5441940;26;20003;-59
2024/04/18 07:24:11;;;;;;;8.32;2.17;;;6.30;99.90;;;;;;5452666;26;20017;-59
2024/04/18 07:26:42;;;;;;;10.20;2.08;;;6.30;99.90;;;;;;5453383;26;20003;-60
2024/04/18 07:29:09;;;;;;;10.25;2.38;;;6.40;99.90;;;;;;5453336;26;20009;-60
2024/04/18 07:31:36;;;;;;;6.18;2.10;;;6.40;99.90;;;;;;5453253;26;20079;-64
2024/04/18 07:34:12;;;;;;;;;;;6.50;99.90;;;;;;5454160;26;20015;-65
2024/04/18 07:36:39;;;;;;;12.02;2.08;;;6.60;99.90;;;;;;5452776;26;19924;-65
2024/04/18 07:39:05;;;;;;;8.85;1.88;;;6.60;99.90;;;;;;5435857;26;20025;-65
2024/04/18 07:41:32;;;;;;;6.15;2.70;;;6.70;99.90;;;;;;5451683;26;20002;-66
2024/04/18 07:43:59;;;;;;;6.93;1.80;;;6.70;99.90;;;;;;5451792;26;20011;-65
2024/04/18 07:46:30;;;;;;;10.10;2.05;;;6.80;99.90;;;;;;5452050;26;20006;-65
2024/04/18 07:48:57;;;;;;;8.60;1.80;;;6.90;99.90;;;;;;5429720;26;20498;-65
2024/04/18 07:51:24;;;;;;;6.85;1.95;;;6.90;99.90;;;;;;5431567;26;20003;-65
2024/04/18 07:53:51;;;;;;;3.33;1.42;;;7.00;99.90;;;;;;5453158;26;19999;-65
2024/04/18 07:56:17;;;;;;;6.30;1.98;;;7.10;99.90;;;;;;5452863;26;20460;-63
2024/04/18 07:58:45;;;;;;;6.47;1.88;;;7.10;99.90;;;;;;5452852;26;20046;-64
2024/04/18 08:01:13;;;;;;;11.23;1.80;;;7.20;99.90;;;;;;5451971;26;20003;-64
2024/04/18 08:03:42;;;;;;;6.68;1.55;;;7.20;99.90;;;;;;5450991;26;19999;-64
2024/04/18 08:06:28;;;;;;;;;;;7.20;99.90;;;;;;5425789;26;20034;-64
2024/04/18 08:08:58;;;;;;;5.93;1.85;;;7.40;99.90;;;;;;5452679;26;20274;-64
2024/04/18 08:11:29;;;;;;;7.53;1.60;;;7.60;99.90;;;;;;5452726;26;19998;-64
2024/04/18 08:14:16;;;;;;;6.57;2.00;;;7.70;99.90;;;;;;5453193;26;20015;-65
2024/04/18 08:16:50;;;;;;;12.73;2.15;;;7.80;99.90;;;;;;5452736;26;20335;-65
2024/04/18 08:19:17;;;;;;;10.15;2.10;;;7.90;99.90;;;;;;5452619;26;20089;-64
2024/04/18 08:21:44;;;;;;;7.28;1.63;;;7.90;99.90;;;;;;5452378;26;20003;-63
2024/04/18 08:24:18;;;;;;;8.10;1.70;;;8.00;99.90;;;;;;5450195;26;20007;-63
2024/04/18 08:26:45;;;;;;;6.30;1.60;;;8.10;99.90;;;;;;5452184;26;20021;-64
2024/04/18 08:29:12;;;;;;;8.32;1.90;;;8.20;99.90;;;;;;5452112;26;20232;-64
2024/04/18 08:31:40;;;;;;;4.80;1.50;;;8.30;99.90;;;;;;5452166;26;20010;-64
2024/04/18 08:34:07;;;;;;;6.07;1.42;;;8.50;99.90;;;;;;5452253;26;20459;-64
2024/04/18 08:36:43;;;;;;;7.78;1.67;;;8.70;99.90;;;;;;5452230;26;20014;-64
2024/04/18 08:39:10;;;;;;;4.07;1.48;;;8.80;99.90;;;;;;5452246;26;20047;-63
2024/04/18 08:41:37;;;;;;;9.70;2.08;;;8.90;99.90;;;;;;5451916;26;20064;-63
2024/04/18 08:44:09;;;;;;;4.32;1.52;;;9.00;99.90;;;;;;5445462;26;20010;-64
2024/04/18 08:46:38;;;;;;;7.05;1.50;;;9.00;99.90;;;;;;5451991;26;20402;-65
2024/04/18 08:49:05;;;;;;;4.53;1.30;;;9.00;99.90;;;;;;5451840;26;19999;-65
2024/04/18 08:51:32;;;;;;;5.90;1.40;;;8.90;99.90;;;;;;5450722;26;20015;-65
2024/04/18 08:53:59;;;;;;;4.63;1.25;;;8.80;99.90;;;;;;5437258;26;20464;-65
2024/04/18 08:56:26;;;;;;;5.45;1.60;;;8.80;99.90;;;;;;5454895;26;20053;-62
2024/04/18 08:58:53;;;;;;;5.50;1.35;;;8.80;99.90;;;;;;5454998;26;19999;-63
2024/04/18 09:01:20;;;;;;;6.75;1.63;;;8.70;99.90;;;;;;5455490;26;20009;-62
2024/04/18 09:03:47;;;;;;;8.18;1.70;;;8.70;99.90;;;;;;5454807;26;20014;-62
2024/04/18 09:06:16;;;;;;;5.93;1.50;;;8.70;99.90;;;;;;5455239;26;20015;-62
2024/04/18 09:08:43;;;;;;;8.23;1.63;;;8.70;99.90;;;;;;5455096;26;20018;-62
2024/04/18 09:11:10;;;;;;;6.82;1.55;;;8.80;99.90;;;;;;5454853;26;20083;-61
2024/04/18 09:13:37;;;;;;;6.53;1.38;;;8.80;99.90;;;;;;5434437;26;20440;-61
2024/04/18 09:16:04;;;;;;;7.57;1.40;;;8.90;99.90;;;;;;5452580;26;20003;-62
2024/04/18 09:18:33;;;;;;;5.78;1.73;;;8.90;99.90;;;;;;5453618;26;20075;-61
2024/04/18 09:21:00;;;;;;;3.58;0.90;;;8.90;99.90;;;;;;5455111;26;20043;-61
2024/04/18 09:23:27;;;;;;;4.00;0.95;;;8.90;99.90;;;;;;5454788;26;20002;-61
2024/04/18 09:25:54;;;;;;;4.75;1.38;;;9.00;99.90;;;;;;5455315;26;20035;-61
2024/04/18 09:28:20;;;;;;;5.90;1.25;;;9.00;99.90;;;;;;5454685;26;20010;-62
2024/04/18 09:30:48;;;;;;;6.70;1.35;;;9.10;99.90;;;;;;5454656;26;20079;-61
2024/04/18 09:33:15;;;;;;;3.10;1.25;;;9.10;99.90;;;;;;5454626;26;20045;-61
2024/04/18 09:35:42;;;;;;;4.32;1.15;;;9.20;99.90;;;;;;5454354;26;20015;-61
2024/04/18 09:38:09;;;;;;;6.22;1.23;;;9.30;99.90;;;;;;5454051;26;20297;-61
2024/04/18 09:40:36;;;;;;;4.70;1.55;;;9.50;99.90;;;;;;5454496;26;20329;-61
2024/04/18 09:43:03;;;;;;;6.10;1.02;;;9.60;99.90;;;;;;5444091;26;20014;-62
2024/04/18 09:45:30;;;;;;;4.32;1.13;;;9.80;99.90;;;;;;5440734;26;20095;-61
2024/04/18 09:47:57;;;;;;;3.72;0.95;;;9.90;99.90;;;;;;5454757;26;19998;-63
2024/04/18 09:50:24;;;;;;;4.95;1.27;;;9.90;99.90;;;;;;5454961;26;20007;-62
2024/04/18 09:52:51;;;;;;;5.53;1.25;;;10.10;99.90;;;;;;5454801;26;20463;-62
2024/04/18 09:55:18;;;;;;;6.82;1.30;;;10.10;99.90;;;;;;5454534;26;20018;-62
2024/04/18 09:57:48;;;;;;;7.13;1.40;;;10.20;99.90;;;;;;5454814;26;20053;-62
2024/04/18 10:00:15;;;;;;;5.47;1.35;;;10.20;99.90;;;;;;5454654;26;20003;-62
2024/04/18 10:02:42;;;;;;;6.80;1.50;;;10.20;99.90;;;;;;5455015;26;19999;-62
2024/04/18 10:05:08;;;;;;;4.88;1.27;;;10.00;99.90;;;;;;5453166;26;20014;-63
2024/04/18 10:07:35;;;;;;;4.35;1.27;;;9.90;99.90;;;;;;5454520;26;19999;-61
2024/04/18 10:10:02;;;;;;;5.15;1.10;;;9.90;99.90;;;;;;5454467;26;20015;-61
2024/04/18 10:12:29;;;;;;;5.95;1.67;;;9.90;99.90;;;;;;5452325;26;19999;-61
2024/04/18 10:14:56;;;;;;;5.80;1.20;;;9.90;99.90;;;;;;5427183;26;20448;-61
2024/04/18 10:17:23;;;;;;;4.03;0.98;;;9.90;99.90;;;;;;5453834;26;19998;-61
2024/04/18 10:19:50;;;;;;;5.38;1.50;;;10.10;99.80;;;;;;5454141;26;20003;-61
2024/04/18 10:27:44;;;;;;;6.80;1.30;;;10.50;99.70;;;;;;5366876;26;19933;-63
2024/04/18 10:30:11;;;;;;;5.72;1.10;;;10.50;99.90;;;;;;5373156;26;20019;-64
2024/04/18 10:32:38;;;;;;;6.45;1.15;;;10.50;99.30;;;;;;5373425;26;20037;-66
2024/04/18 10:35:05;;;;;;;4.47;0.98;;;10.40;98.90;;;;;;5372288;26;20019;-65
2024/04/18 10:37:32;;;;;;;4.63;1.30;;;10.20;98.60;;;;;;5372412;26;20027;-64
2024/04/18 10:39:59;;;;;;;5.63;1.45;;;10.20;98.70;;;;;;5373209;26;20080;-63
2024/04/18 10:42:26;;;;;;;7.65;1.30;;;10.10;99.00;;;;;;5371627;26;20015;-64
2024/04/18 10:44:53;;;;;;;3.50;1.15;;;10.10;99.20;;;;;;5370071;26;20544;-65
2024/04/18 10:47:20;;;;;;;4.38;1.30;;;10.10;99.40;;;;;;5400466;26;20005;-64
2024/04/18 10:49:47;;;;;;;4.97;1.73;;;10.10;99.30;;;;;;5372580;26;20086;-65
2024/04/18 10:52:14;;;;;;;5.43;1.35;;;10.10;99.40;;;;;;5372729;26;20012;-65
2024/04/18 10:54:41;;;;;;;3.45;1.13;;;10.20;99.30;;;;;;5372617;26;20004;-65
2024/04/18 10:57:07;;;;;;;4.72;1.50;;;10.40;99.30;;;;;;5372738;26;20026;-65
2024/04/18 10:59:34;;;;;;;4.53;1.38;;;10.60;99.90;;;;;;5372665;26;20012;-64
2024/04/18 11:02:01;;;;;;;6.68;1.17;;;10.80;99.70;;;;;;5370730;26;20397;-65
2024/04/18 11:04:28;;;;;;;9.38;1.50;;;11.00;99.30;;;;;;5372661;26;20001;-65
2024/04/18 11:06:55;;;;;;;8.57;2.13;;;11.20;98.90;;;;;;5370809;26;20004;-65
2024/04/18 11:09:22;;;;;;;8.32;1.60;;;11.20;98.80;;;;;;5372403;26;20000;-65
2024/04/18 11:11:49;;;;;;;6.25;1.45;;;11.20;98.20;;;;;;5372154;26;20362;-60
2024/04/18 11:14:17;;;;;;;4.20;1.23;;;11.10;98.20;;;;;;5372614;26;20011;-60
2024/04/18 11:16:44;;;;;;;5.40;1.42;;;11.10;97.70;;;;;;5372267;26;20008;-60
2024/04/18 11:19:10;;;;;;;5.68;1.10;;;11.00;96.50;;;;;;5372203;26;20004;-59
2024/04/18 11:21:37;;;;;;;5.68;1.08;;;10.90;97.40;;;;;;5370426;26;20008;-60
2024/04/18 11:24:05;;;;;;;6.05;1.75;;;10.90;97.10;;;;;;5372045;26;20016;-60
2024/04/18 11:26:31;;;;;;;5.18;1.33;;;11.00;97.90;;;;;;5371945;26;20020;-60
2024/04/18 11:28:59;;;;;;;4.30;1.13;;;11.00;97.70;;;;;;5372174;26;20014;-59
2024/04/18 11:31:26;;;;;;;4.60;0.90;;;11.10;97.20;;;;;;5372015;26;20005;-59
2024/04/18 11:33:55;;;;;;;7.18;1.50;;;11.20;97.80;;;;;;5372190;26;20011;-60
2024/04/18 11:36:22;;;;;;;3.70;1.00;;;11.30;97.80;;;;;;5371949;26;20009;-59
2024/04/18 11:38:49;;;;;;;2.92;1.00;;;11.30;96.60;;;;;;5371916;26;20076;-59
2024/04/18 11:41:17;;;;;;;5.05;1.35;;;11.30;97.00;;;;;;5371989;26;20008;-59
2024/04/18 11:43:44;;;;;;;3.70;1.20;;;11.40;96.90;;;;;;5371908;26;20001;-60
2024/04/18 11:46:11;;;;;;;3.35;1.02;;;11.40;95.20;;;;;;5371924;26;20009;-60
2024/04/18 11:48:38;;;;;;;2.15;0.85;;;11.50;95.30;;;;;;5371754;26;20008;-60
2024/04/18 11:51:05;;;;;;;3.35;1.20;;;11.60;94.70;;;;;;5369945;26;20020;-60
2024/04/18 11:53:32;;;;;;;6.53;1.25;;;11.60;95.30;;;;;;5371749;26;20000;-60
2024/04/18 11:55:59;;;;;;;5.38;1.05;;;11.80;96.10;;;;;;5371662;26;20032;-60
2024/04/18 11:58:30;;;;;;;4.97;1.02;;;11.80;95.70;;;;;;5372138;26;20089;-60
2024/04/18 12:00:57;;;;;;;7.43;1.27;;;11.80;95.80;;;;;;5370854;26;20000;-60
2024/04/18 12:03:36;;;;;;;4.18;1.00;;;11.90;95.90;;;;;;5341557;26;20459;-60
2024/04/18 12:06:23;;;;;;;3.20;1.10;;;11.90;95.40;;;;;;5370760;26;20004;-60
2024/04/18 12:08:50;;;;;;;5.53;0.90;;;11.90;95.60;;;;;;5371337;26;20008;-60
2024/04/18 12:11:26;;;;;;;3.33;0.90;;;12.10;95.70;;;;;;5371464;26;20004;-60
2024/04/18 12:14:09;;;;;;;3.72;1.10;;;12.20;94.40;;;;;;5369548;26;20350;-60
2024/04/18 12:16:52;;;;;;;4.18;1.00;;;12.20;94.60;;;;;;5371611;26;20015;-60
2024/04/18 12:19:19;;;;;;;4.13;1.15;;;12.20;95.30;;;;;;5371815;26;20037;-59
2024/04/18 12:21:46;;;;;;;4.22;0.93;;;12.20;95.30;;;;;;5371489;26;20081;-59
2024/04/18 12:24:13;;;;;;;5.22;1.38;;;12.30;95.40;;;;;;5371701;26;20015;-59
2024/04/18 12:26:40;;;;;;;5.53;1.10;;;12.30;95.90;;;;;;5371474;26;20019;-59
2024/04/18 12:29:07;;;;;;;5.00;1.10;;;12.20;95.60;;;;;;5374914;26;20004;-64
2024/04/18 12:31:54;;;;;;;5.00;1.10;;;12.20;94.80;;;;;;5374818;26;20005;-64
2024/04/18 12:34:21;;;;;;;3.95;1.10;;;12.20;95.10;;;;;;5374912;26;20015;-64
2024/04/18 12:37:01;;;;;;;6.28;1.08;;;12.20;94.40;;;;;;5374829;26;20077;-64
2024/04/18 12:39:33;;;;;;;3.08;1.10;;;12.30;94.40;;;;;;5374726;26;20006;-64
2024/04/18 12:42:20;;;;;;;6.60;1.23;;;12.50;94.50;;;;;;5374814;26;20004;-64
2024/04/18 12:44:47;;;;;;;3.15;1.05;;;12.60;94.30;;;;;;5374774;26;20398;-64
2024/04/18 12:47:20;;;;;;;6.15;1.02;;;12.60;94.40;;;;;;5374603;26;20492;-64
2024/04/18 12:49:47;;;;;;;4.35;1.10;;;12.60;94.60;;;;;;5374677;26;20015;-64
2024/04/18 12:52:14;;;;;;;5.68;1.30;;;12.60;94.40;;;;;;5374698;26;20008;-64
2024/04/18 12:54:41;;;;;;;3.42;1.10;;;12.70;95.00;;;;;;5374186;26;20001;-64
2024/04/18 12:57:20;;;;;;;5.40;1.20;;;12.80;94.80;;;;;;5374628;26;20004;-64
2024/04/18 13:00:16;;;;;;;;;;;12.90;95.00;;;;;;5381853;26;20033;-64
2024/04/18 13:02:55;;;;;;;2.80;1.00;;;13.00;94.80;;;;;;5402130;26;20350;-64
2024/04/18 13:05:34;;;;;;;7.35;1.20;;;13.10;94.70;;;;;;5374779;26;20008;-65
2024/04/18 13:08:04;;;;;;;4.47;1.25;;;13.00;93.50;;;;;;5374212;26;20084;-64
2024/04/18 13:10:50;;;;;;;4.68;1.45;;;12.80;94.00;;;;;;5375307;26;20051;-64
2024/04/18 13:13:23;;;;;;;3.75;1.00;;;12.80;93.20;;;;;;5374286;26;20004;-64
2024/04/18 13:16:09;;;;;;;;;;;12.80;93.10;;;;;;5375054;26;20019;-64
2024/04/18 13:18:36;;;;;;;4.75;0.90;;;12.90;92.70;;;;;;5372562;26;19932;-64
2024/04/18 13:21:03;;;;;;;4.60;0.90;;;12.90;92.60;;;;;;5374331;26;20016;-64
2024/04/18 13:23:30;;;;;;;6.00;1.00;;;12.90;91.80;;;;;;5374182;26;20018;-64
2024/04/18 13:25:59;;;;;;;3.05;1.00;;;12.90;91.70;;;;;;5373810;26;20000;-64